Hlavní strana
METAR-TAF:

METAR-TAF

Letiště :

Letiště Oslo

Oslo, Norsko

zeměpisná šířka: 60-12N, zeměpisná délka: 011-05E, výška: 208 m

Aktuální stav počasí

Zpráva byla vytvořena před 27 minutami, v 06:20 UTC
Bezvětří
Teplota -11°C
Vlhkost vzduchu 92%
Tlak 1034 hPa
Viditelnost: 9000 m
Zataženo ve výšce 400 ft

METAR: ENGM 150620Z 00000KT 9000 OVC004 M11/M12 Q1034 TEMPO BKN006

Čas: 07:47 (06:47 UTC)

Předpověď počasí

Předpověď platná od 15 v 06 UTC do 16 v 06 UTC
vítr z různých směrů 3 kt
Viditelnost 10 km a více
Skoro jasno ve výšce 300 ft
Oblačno až skoro zataženo ve výšce 1200 ft
Dočasný
od 15 v 06 UTC do 15 v 09 UTC
Viditelnost: 2000 m
Oblačno až skoro zataženo ve výšce 300 ft
chuchvalce mlhy
Dočasný
od 15 v 18 UTC do 16 v 06 UTC
Skoro jasno ve výšce 300 ft
Oblačno až skoro zataženo ve výšce 800 ft

TAF: ENGM 1506/1606 VRB03KT 9999 FEW003 BKN012 TEMPO 1506/1509 2000 BCFG BKN003 TEMPO 1518/1606 FEW003 BKN008

Stav a předpovědi počasí z více než 4 000 letišť (zprávy METAR a TAF).

Červené a žluté tečky na mapě představují dostupné meteorologické stanice.

Když kurzor umístíte na tečku, zobrazí se název stanice.

Pak kliknutím zobrazíte stav a předpověď počasí.

Chcete-li změnit mapu, kliknutím na zelené tlačítko se znaménkem +mapu přiblížíte, kliknutím na zelené tlačítko se znaménkem – mapu oddálíte a kliknutím na zelené šipky přejdete na sousední mapy.


METAR-TAF: